sensor_id;sensor_type;location;lat;lon;timestamp;P1;durP1;ratioP1;P2;durP2;ratioP2
24857;SDS011;12935;50.782;6.074;2023-09-19T00:01:06;25.63;;;10.90;;
24857;SDS011;12935;50.782;6.074;2023-09-19T00:03:36;23.23;;;11.37;;
24857;SDS011;12935;50.782;6.074;2023-09-19T00:06:02;20.90;;;11.13;;
24857;SDS011;12935;50.782;6.074;2023-09-19T00:08:30;16.87;;;10.93;;
24857;SDS011;12935;50.782;6.074;2023-09-19T00:10:58;21.93;;;10.50;;
24857;SDS011;12935;50.782;6.074;2023-09-19T00:13:29;13.60;;;11.80;;
24857;SDS011;12935;50.782;6.074;2023-09-19T00:15:56;16.40;;;10.90;;
24857;SDS011;12935;50.782;6.074;2023-09-19T00:18:24;26.10;;;11.40;;
24857;SDS011;12935;50.782;6.074;2023-09-19T00:20:57;14.60;;;10.03;;
24857;SDS011;12935;50.782;6.074;2023-09-19T00:23:23;24.10;;;10.70;;
24857;SDS011;12935;50.782;6.074;2023-09-19T00:25:50;15.07;;;9.50;;
24857;SDS011;12935;50.782;6.074;2023-09-19T00:28:16;19.53;;;11.20;;
24857;SDS011;12935;50.782;6.074;2023-09-19T00:30:43;24.50;;;10.60;;
24857;SDS011;12935;50.782;6.074;2023-09-19T00:33:10;16.97;;;9.97;;
24857;SDS011;12935;50.782;6.074;2023-09-19T00:35:46;14.33;;;9.50;;
24857;SDS011;12935;50.782;6.074;2023-09-19T00:38:22;12.30;;;8.57;;
24857;SDS011;12935;50.782;6.074;2023-09-19T00:40:51;19.40;;;10.63;;
24857;SDS011;12935;50.782;6.074;2023-09-19T00:43:19;17.53;;;10.00;;
24857;SDS011;12935;50.782;6.074;2023-09-19T00:45:46;20.43;;;10.40;;
24857;SDS011;12935;50.782;6.074;2023-09-19T00:48:13;27.57;;;11.00;;
24857;SDS011;12935;50.782;6.074;2023-09-19T00:50:41;16.87;;;9.67;;
24857;SDS011;12935;50.782;6.074;2023-09-19T00:53:08;25.70;;;10.10;;
24857;SDS011;12935;50.782;6.074;2023-09-19T00:55:38;26.20;;;10.93;;
24857;SDS011;12935;50.782;6.074;2023-09-19T00:58:07;54.93;;;12.27;;
24857;SDS011;12935;50.782;6.074;2023-09-19T01:00:35;17.90;;;11.00;;
24857;SDS011;12935;50.782;6.074;2023-09-19T01:03:05;15.80;;;8.80;;
24857;SDS011;12935;50.782;6.074;2023-09-19T01:05:34;12.83;;;9.37;;
24857;SDS011;12935;50.782;6.074;2023-09-19T01:08:01;17.33;;;9.33;;
24857;SDS011;12935;50.782;6.074;2023-09-19T01:10:26;19.67;;;10.30;;
24857;SDS011;12935;50.782;6.074;2023-09-19T01:18:40;25.87;;;9.63;;
24857;SDS011;12935;50.782;6.074;2023-09-19T01:24:11;35.53;;;10.30;;
24857;SDS011;12935;50.782;6.074;2023-09-19T01:29:51;26.03;;;10.00;;
24857;SDS011;12935;50.782;6.074;2023-09-19T01:32:19;14.10;;;9.13;;
24857;SDS011;12935;50.782;6.074;2023-09-19T01:34:54;18.23;;;8.83;;
24857;SDS011;12935;50.782;6.074;2023-09-19T01:37:23;20.83;;;9.33;;
24857;SDS011;12935;50.782;6.074;2023-09-19T01:39:58;19.37;;;11.23;;
24857;SDS011;12935;50.782;6.074;2023-09-19T01:42:42;18.93;;;9.40;;
24857;SDS011;12935;50.782;6.074;2023-09-19T01:47:52;28.50;;;10.47;;
24857;SDS011;12935;50.782;6.074;2023-09-19T01:52:57;22.37;;;9.60;;
24857;SDS011;12935;50.782;6.074;2023-09-19T01:55:29;15.63;;;8.93;;
24857;SDS011;12935;50.782;6.074;2023-09-19T01:58:01;18.60;;;9.10;;
24857;SDS011;12935;50.782;6.074;2023-09-19T02:00:32;40.90;;;9.40;;
24857;SDS011;12935;50.782;6.074;2023-09-19T02:03:01;23.13;;;10.27;;
24857;SDS011;12935;50.782;6.074;2023-09-19T02:05:28;22.40;;;10.40;;
24857;SDS011;12935;50.782;6.074;2023-09-19T02:07:54;19.83;;;9.63;;
24857;SDS011;12935;50.782;6.074;2023-09-19T02:10:21;28.67;;;10.60;;
24857;SDS011;12935;50.782;6.074;2023-09-19T02:12:47;16.93;;;8.63;;
24857;SDS011;12935;50.782;6.074;2023-09-19T02:15:13;20.27;;;9.20;;
24857;SDS011;12935;50.782;6.074;2023-09-19T02:17:40;18.97;;;11.70;;
24857;SDS011;12935;50.782;6.074;2023-09-19T02:20:08;20.23;;;9.93;;
24857;SDS011;12935;50.782;6.074;2023-09-19T02:22:35;13.43;;;8.73;;
24857;SDS011;12935;50.782;6.074;2023-09-19T02:25:01;26.33;;;12.77;;
24857;SDS011;12935;50.782;6.074;2023-09-19T02:27:26;17.93;;;9.83;;
24857;SDS011;12935;50.782;6.074;2023-09-19T02:29:52;23.27;;;9.70;;
24857;SDS011;12935;50.782;6.074;2023-09-19T02:32:17;27.93;;;10.90;;
24857;SDS011;12935;50.782;6.074;2023-09-19T02:34:44;13.50;;;8.60;;
24857;SDS011;12935;50.782;6.074;2023-09-19T02:37:10;20.03;;;8.87;;
24857;SDS011;12935;50.782;6.074;2023-09-19T02:39:35;29.53;;;10.33;;
24857;SDS011;12935;50.782;6.074;2023-09-19T02:42:01;13.40;;;8.40;;
24857;SDS011;12935;50.782;6.074;2023-09-19T02:44:29;20.40;;;9.60;;
24857;SDS011;12935;50.782;6.074;2023-09-19T02:46:55;42.10;;;11.23;;
24857;SDS011;12935;50.782;6.074;2023-09-19T02:49:22;22.60;;;9.53;;
24857;SDS011;12935;50.782;6.074;2023-09-19T02:51:48;20.07;;;9.60;;
24857;SDS011;12935;50.782;6.074;2023-09-19T02:54:14;48.93;;;13.20;;
24857;SDS011;12935;50.782;6.074;2023-09-19T02:56:40;16.13;;;8.70;;
24857;SDS011;12935;50.782;6.074;2023-09-19T02:59:09;17.43;;;9.60;;
24857;SDS011;12935;50.782;6.074;2023-09-19T03:01:35;23.73;;;9.23;;
24857;SDS011;12935;50.782;6.074;2023-09-19T03:04:03;15.07;;;7.67;;
24857;SDS011;12935;50.782;6.074;2023-09-19T03:06:33;18.77;;;9.47;;
24857;SDS011;12935;50.782;6.074;2023-09-19T03:08:59;25.57;;;9.47;;
24857;SDS011;12935;50.782;6.074;2023-09-19T03:11:25;16.90;;;9.27;;
24857;SDS011;12935;50.782;6.074;2023-09-19T03:13:51;17.63;;;8.90;;
24857;SDS011;12935;50.782;6.074;2023-09-19T03:16:18;23.63;;;10.40;;
24857;SDS011;12935;50.782;6.074;2023-09-19T03:18:46;15.93;;;8.70;;
24857;SDS011;12935;50.782;6.074;2023-09-19T03:21:13;17.03;;;8.37;;
24857;SDS011;12935;50.782;6.074;2023-09-19T03:23:40;21.00;;;9.43;;
24857;SDS011;12935;50.782;6.074;2023-09-19T03:26:06;26.03;;;10.00;;
24857;SDS011;12935;50.782;6.074;2023-09-19T03:28:33;22.57;;;9.37;;
24857;SDS011;12935;50.782;6.074;2023-09-19T03:33:29;14.17;;;8.27;;
24857;SDS011;12935;50.782;6.074;2023-09-19T03:35:58;13.13;;;8.80;;
24857;SDS011;12935;50.782;6.074;2023-09-19T03:38:25;20.00;;;8.60;;
24857;SDS011;12935;50.782;6.074;2023-09-19T03:40:50;18.10;;;9.80;;
24857;SDS011;12935;50.782;6.074;2023-09-19T03:43:16;15.67;;;8.77;;
24857;SDS011;12935;50.782;6.074;2023-09-19T03:45:42;17.80;;;8.50;;
24857;SDS011;12935;50.782;6.074;2023-09-19T03:48:08;20.57;;;8.70;;
24857;SDS011;12935;50.782;6.074;2023-09-19T03:50:34;25.57;;;10.07;;
24857;SDS011;12935;50.782;6.074;2023-09-19T03:53:00;21.90;;;9.37;;
24857;SDS011;12935;50.782;6.074;2023-09-19T03:55:25;28.37;;;10.03;;
24857;SDS011;12935;50.782;6.074;2023-09-19T03:57:50;36.70;;;10.90;;
24857;SDS011;12935;50.782;6.074;2023-09-19T04:00:18;23.70;;;10.03;;
24857;SDS011;12935;50.782;6.074;2023-09-19T04:02:46;30.83;;;10.00;;
24857;SDS011;12935;50.782;6.074;2023-09-19T04:05:12;17.17;;;8.20;;
24857;SDS011;12935;50.782;6.074;2023-09-19T04:07:38;18.97;;;9.00;;
24857;SDS011;12935;50.782;6.074;2023-09-19T04:10:04;11.20;;;8.73;;
24857;SDS011;12935;50.782;6.074;2023-09-19T04:12:30;36.77;;;9.80;;
24857;SDS011;12935;50.782;6.074;2023-09-19T04:14:56;14.60;;;8.20;;
24857;SDS011;12935;50.782;6.074;2023-09-19T04:17:21;21.77;;;8.50;;
24857;SDS011;12935;50.782;6.074;2023-09-19T04:19:48;17.43;;;8.73;;
24857;SDS011;12935;50.782;6.074;2023-09-19T04:22:13;14.23;;;7.93;;
24857;SDS011;12935;50.782;6.074;2023-09-19T04:24:39;16.53;;;8.47;;
24857;SDS011;12935;50.782;6.074;2023-09-19T04:27:05;23.83;;;10.33;;
24857;SDS011;12935;50.782;6.074;2023-09-19T04:29:32;20.90;;;9.20;;
24857;SDS011;12935;50.782;6.074;2023-09-19T04:31:57;13.80;;;8.10;;
24857;SDS011;12935;50.782;6.074;2023-09-19T04:34:22;27.07;;;10.37;;
24857;SDS011;12935;50.782;6.074;2023-09-19T04:36:49;31.50;;;10.43;;
24857;SDS011;12935;50.782;6.074;2023-09-19T04:39:15;38.87;;;11.90;;
24857;SDS011;12935;50.782;6.074;2023-09-19T04:41:41;36.33;;;10.50;;
24857;SDS011;12935;50.782;6.074;2023-09-19T04:44:07;56.37;;;11.70;;
24857;SDS011;12935;50.782;6.074;2023-09-19T04:46:35;41.33;;;11.60;;
24857;SDS011;12935;50.782;6.074;2023-09-19T04:49:01;45.47;;;10.83;;
24857;SDS011;12935;50.782;6.074;2023-09-19T04:51:29;21.53;;;8.73;;
24857;SDS011;12935;50.782;6.074;2023-09-19T04:53:59;19.50;;;8.80;;
24857;SDS011;12935;50.782;6.074;2023-09-19T04:56:25;29.97;;;10.90;;
24857;SDS011;12935;50.782;6.074;2023-09-19T04:58:51;37.33;;;10.40;;
24857;SDS011;12935;50.782;6.074;2023-09-19T05:01:19;20.17;;;8.37;;
24857;SDS011;12935;50.782;6.074;2023-09-19T05:03:47;24.27;;;9.47;;
24857;SDS011;12935;50.782;6.074;2023-09-19T05:06:17;25.73;;;9.30;;
24857;SDS011;12935;50.782;6.074;2023-09-19T05:08:43;26.47;;;10.83;;
24857;SDS011;12935;50.782;6.074;2023-09-19T05:11:08;24.23;;;9.07;;
24857;SDS011;12935;50.782;6.074;2023-09-19T05:13:34;19.73;;;8.90;;
24857;SDS011;12935;50.782;6.074;2023-09-19T05:16:00;25.60;;;11.70;;
24857;SDS011;12935;50.782;6.074;2023-09-19T05:18:27;27.97;;;9.77;;
24857;SDS011;12935;50.782;6.074;2023-09-19T05:20:53;19.87;;;8.40;;
24857;SDS011;12935;50.782;6.074;2023-09-19T05:23:19;32.67;;;10.53;;
24857;SDS011;12935;50.782;6.074;2023-09-19T05:25:46;19.43;;;8.93;;
24857;SDS011;12935;50.782;6.074;2023-09-19T05:28:11;18.17;;;8.27;;
24857;SDS011;12935;50.782;6.074;2023-09-19T05:30:40;27.57;;;9.40;;
24857;SDS011;12935;50.782;6.074;2023-09-19T05:33:06;24.97;;;9.63;;
24857;SDS011;12935;50.782;6.074;2023-09-19T05:35:32;20.70;;;8.57;;
24857;SDS011;12935;50.782;6.074;2023-09-19T05:37:57;24.03;;;9.50;;
24857;SDS011;12935;50.782;6.074;2023-09-19T05:40:23;25.80;;;9.50;;
24857;SDS011;12935;50.782;6.074;2023-09-19T05:42:49;17.57;;;8.77;;
24857;SDS011;12935;50.782;6.074;2023-09-19T05:45:16;19.23;;;8.53;;
24857;SDS011;12935;50.782;6.074;2023-09-19T05:47:50;19.50;;;8.90;;
24857;SDS011;12935;50.782;6.074;2023-09-19T05:50:20;22.83;;;8.27;;
24857;SDS011;12935;50.782;6.074;2023-09-19T05:52:53;29.50;;;9.37;;
24857;SDS011;12935;50.782;6.074;2023-09-19T05:55:20;32.03;;;9.83;;
24857;SDS011;12935;50.782;6.074;2023-09-19T05:57:49;28.00;;;10.13;;
24857;SDS011;12935;50.782;6.074;2023-09-19T06:00:19;33.07;;;10.80;;
24857;SDS011;12935;50.782;6.074;2023-09-19T06:02:51;24.30;;;10.47;;
24857;SDS011;12935;50.782;6.074;2023-09-19T06:05:17;19.70;;;8.50;;
24857;SDS011;12935;50.782;6.074;2023-09-19T06:07:42;29.10;;;10.33;;
24857;SDS011;12935;50.782;6.074;2023-09-19T06:10:08;20.40;;;8.17;;
24857;SDS011;12935;50.782;6.074;2023-09-19T06:12:45;16.00;;;8.80;;
24857;SDS011;12935;50.782;6.074;2023-09-19T06:15:12;20.50;;;9.93;;
24857;SDS011;12935;50.782;6.074;2023-09-19T06:17:50;23.70;;;8.50;;
24857;SDS011;12935;50.782;6.074;2023-09-19T06:20:20;20.90;;;8.97;;
24857;SDS011;12935;50.782;6.074;2023-09-19T06:22:47;28.27;;;9.07;;
24857;SDS011;12935;50.782;6.074;2023-09-19T06:25:13;29.83;;;10.40;;
24857;SDS011;12935;50.782;6.074;2023-09-19T06:27:44;22.47;;;9.40;;
24857;SDS011;12935;50.782;6.074;2023-09-19T06:30:20;27.53;;;10.00;;
24857;SDS011;12935;50.782;6.074;2023-09-19T06:32:48;17.93;;;8.50;;
24857;SDS011;12935;50.782;6.074;2023-09-19T06:35:15;37.27;;;10.17;;
24857;SDS011;12935;50.782;6.074;2023-09-19T06:37:41;23.50;;;9.00;;
24857;SDS011;12935;50.782;6.074;2023-09-19T06:40:08;17.10;;;8.77;;
24857;SDS011;12935;50.782;6.074;2023-09-19T06:42:42;25.63;;;9.03;;
24857;SDS011;12935;50.782;6.074;2023-09-19T06:45:10;61.53;;;12.00;;
24857;SDS011;12935;50.782;6.074;2023-09-19T06:47:38;27.00;;;9.47;;
24857;SDS011;12935;50.782;6.074;2023-09-19T06:50:04;29.33;;;10.87;;
24857;SDS011;12935;50.782;6.074;2023-09-19T06:52:30;25.93;;;9.33;;
24857;SDS011;12935;50.782;6.074;2023-09-19T06:54:57;27.80;;;9.60;;
24857;SDS011;12935;50.782;6.074;2023-09-19T06:57:23;26.53;;;9.00;;
24857;SDS011;12935;50.782;6.074;2023-09-19T06:59:49;19.07;;;8.30;;
24857;SDS011;12935;50.782;6.074;2023-09-19T07:02:15;24.97;;;9.07;;
24857;SDS011;12935;50.782;6.074;2023-09-19T07:04:40;43.67;;;9.57;;
24857;SDS011;12935;50.782;6.074;2023-09-19T07:07:09;26.33;;;9.77;;
24857;SDS011;12935;50.782;6.074;2023-09-19T07:09:37;28.93;;;9.93;;
24857;SDS011;12935;50.782;6.074;2023-09-19T07:12:03;19.07;;;9.27;;
24857;SDS011;12935;50.782;6.074;2023-09-19T07:14:29;32.23;;;10.93;;
24857;SDS011;12935;50.782;6.074;2023-09-19T07:16:55;35.97;;;9.23;;
24857;SDS011;12935;50.782;6.074;2023-09-19T07:19:26;23.47;;;8.53;;
24857;SDS011;12935;50.782;6.074;2023-09-19T07:21:55;35.00;;;11.03;;
24857;SDS011;12935;50.782;6.074;2023-09-19T07:24:21;18.53;;;9.10;;
24857;SDS011;12935;50.782;6.074;2023-09-19T07:26:49;25.23;;;9.33;;
24857;SDS011;12935;50.782;6.074;2023-09-19T07:29:15;23.30;;;9.70;;
24857;SDS011;12935;50.782;6.074;2023-09-19T07:31:40;20.47;;;9.43;;
24857;SDS011;12935;50.782;6.074;2023-09-19T07:34:05;22.20;;;10.83;;
24857;SDS011;12935;50.782;6.074;2023-09-19T07:36:33;30.97;;;11.27;;
24857;SDS011;12935;50.782;6.074;2023-09-19T07:38:59;22.30;;;9.23;;
24857;SDS011;12935;50.782;6.074;2023-09-19T07:41:25;17.03;;;8.53;;
24857;SDS011;12935;50.782;6.074;2023-09-19T07:43:50;20.00;;;9.17;;
24857;SDS011;12935;50.782;6.074;2023-09-19T07:46:16;26.03;;;10.53;;
24857;SDS011;12935;50.782;6.074;2023-09-19T07:48:44;23.37;;;10.00;;
24857;SDS011;12935;50.782;6.074;2023-09-19T07:51:12;31.10;;;10.33;;
24857;SDS011;12935;50.782;6.074;2023-09-19T07:53:39;31.00;;;11.57;;
24857;SDS011;12935;50.782;6.074;2023-09-19T07:56:08;16.33;;;9.67;;
24857;SDS011;12935;50.782;6.074;2023-09-19T07:58:34;33.87;;;11.37;;
24857;SDS011;12935;50.782;6.074;2023-09-19T08:03:33;31.30;;;10.87;;
24857;SDS011;12935;50.782;6.074;2023-09-19T08:06:00;30.97;;;10.07;;
24857;SDS011;12935;50.782;6.074;2023-09-19T08:08:29;20.37;;;10.00;;
24857;SDS011;12935;50.782;6.074;2023-09-19T08:10:54;14.80;;;8.27;;
24857;SDS011;12935;50.782;6.074;2023-09-19T08:13:23;20.40;;;10.40;;
24857;SDS011;12935;50.782;6.074;2023-09-19T08:15:49;26.80;;;11.00;;
24857;SDS011;12935;50.782;6.074;2023-09-19T08:18:16;20.93;;;10.80;;
24857;SDS011;12935;50.782;6.074;2023-09-19T08:20:42;44.97;;;13.53;;
24857;SDS011;12935;50.782;6.074;2023-09-19T08:23:07;27.80;;;10.20;;
24857;SDS011;12935;50.782;6.074;2023-09-19T08:25:34;30.60;;;11.37;;
24857;SDS011;12935;50.782;6.074;2023-09-19T08:28:00;22.07;;;10.53;;
24857;SDS011;12935;50.782;6.074;2023-09-19T08:30:28;22.23;;;9.77;;
24857;SDS011;12935;50.782;6.074;2023-09-19T08:32:59;25.77;;;11.77;;
24857;SDS011;12935;50.782;6.074;2023-09-19T08:35:25;21.30;;;10.87;;
24857;SDS011;12935;50.782;6.074;2023-09-19T08:37:51;26.60;;;11.60;;
24857;SDS011;12935;50.782;6.074;2023-09-19T08:40:17;15.70;;;10.87;;
24857;SDS011;12935;50.782;6.074;2023-09-19T08:52:03;28.93;;;11.67;;
24857;SDS011;12935;50.782;6.074;2023-09-19T08:54:41;35.67;;;12.67;;
24857;SDS011;12935;50.782;6.074;2023-09-19T08:57:08;19.63;;;10.53;;
24857;SDS011;12935;50.782;6.074;2023-09-19T08:59:42;14.40;;;9.40;;
24857;SDS011;12935;50.782;6.074;2023-09-19T09:02:13;17.40;;;9.47;;
24857;SDS011;12935;50.782;6.074;2023-09-19T09:04:41;21.20;;;10.23;;
24857;SDS011;12935;50.782;6.074;2023-09-19T09:07:11;21.90;;;11.10;;
24857;SDS011;12935;50.782;6.074;2023-09-19T09:09:38;24.53;;;11.20;;
24857;SDS011;12935;50.782;6.074;2023-09-19T09:12:07;14.13;;;9.80;;
24857;SDS011;12935;50.782;6.074;2023-09-19T09:14:35;47.70;;;14.53;;
24857;SDS011;12935;50.782;6.074;2023-09-19T09:17:00;12.10;;;10.03;;
24857;SDS011;12935;50.782;6.074;2023-09-19T09:19:28;19.07;;;11.47;;
24857;SDS011;12935;50.782;6.074;2023-09-19T09:22:05;16.43;;;11.37;;
24857;SDS011;12935;50.782;6.074;2023-09-19T09:24:34;22.13;;;10.73;;
24857;SDS011;12935;50.782;6.074;2023-09-19T09:27:06;31.00;;;12.37;;
24857;SDS011;12935;50.782;6.074;2023-09-19T09:29:40;29.80;;;12.40;;
24857;SDS011;12935;50.782;6.074;2023-09-19T09:34:45;34.17;;;12.63;;
24857;SDS011;12935;50.782;6.074;2023-09-19T09:37:14;30.43;;;12.87;;
24857;SDS011;12935;50.782;6.074;2023-09-19T09:39:40;26.77;;;11.77;;
24857;SDS011;12935;50.782;6.074;2023-09-19T09:42:29;17.53;;;10.33;;
24857;SDS011;12935;50.782;6.074;2023-09-19T09:45:16;50.67;;;14.10;;
24857;SDS011;12935;50.782;6.074;2023-09-19T09:48:02;16.33;;;11.67;;
24857;SDS011;12935;50.782;6.074;2023-09-19T09:50:33;23.67;;;11.57;;
24857;SDS011;12935;50.782;6.074;2023-09-19T09:53:27;21.87;;;12.33;;
24857;SDS011;12935;50.782;6.074;2023-09-19T09:58:23;33.43;;;13.53;;
24857;SDS011;12935;50.782;6.074;2023-09-19T10:00:53;17.73;;;11.50;;
24857;SDS011;12935;50.782;6.074;2023-09-19T10:03:24;41.90;;;13.63;;
24857;SDS011;12935;50.782;6.074;2023-09-19T10:05:57;25.77;;;12.47;;
24857;SDS011;12935;50.782;6.074;2023-09-19T10:08:23;23.53;;;14.40;;
24857;SDS011;12935;50.782;6.074;2023-09-19T10:10:49;40.30;;;15.57;;
24857;SDS011;12935;50.782;6.074;2023-09-19T10:13:18;21.93;;;13.17;;
24857;SDS011;12935;50.782;6.074;2023-09-19T10:15:49;35.33;;;14.40;;
24857;SDS011;12935;50.782;6.074;2023-09-19T10:20:46;43.00;;;13.23;;
24857;SDS011;12935;50.782;6.074;2023-09-19T10:23:14;24.37;;;13.57;;
24857;SDS011;12935;50.782;6.074;2023-09-19T10:25:47;28.97;;;13.80;;
24857;SDS011;12935;50.782;6.074;2023-09-19T10:28:14;46.07;;;14.57;;
24857;SDS011;12935;50.782;6.074;2023-09-19T10:30:43;22.23;;;12.20;;
24857;SDS011;12935;50.782;6.074;2023-09-19T10:33:14;19.63;;;13.30;;
24857;SDS011;12935;50.782;6.074;2023-09-19T10:35:44;26.53;;;12.97;;
24857;SDS011;12935;50.782;6.074;2023-09-19T10:38:12;15.80;;;13.20;;
24857;SDS011;12935;50.782;6.074;2023-09-19T10:40:48;29.33;;;14.03;;
24857;SDS011;12935;50.782;6.074;2023-09-19T10:43:16;35.53;;;14.93;;
24857;SDS011;12935;50.782;6.074;2023-09-19T10:45:43;24.93;;;12.70;;
24857;SDS011;12935;50.782;6.074;2023-09-19T10:48:15;25.70;;;13.30;;
24857;SDS011;12935;50.782;6.074;2023-09-19T10:53:12;25.20;;;13.50;;
24857;SDS011;12935;50.782;6.074;2023-09-19T10:55:40;19.00;;;13.17;;
24857;SDS011;12935;50.782;6.074;2023-09-19T10:58:06;14.77;;;12.27;;
24857;SDS011;12935;50.782;6.074;2023-09-19T11:00:50;24.00;;;13.33;;
24857;SDS011;12935;50.782;6.074;2023-09-19T11:03:21;19.67;;;12.57;;
24857;SDS011;12935;50.782;6.074;2023-09-19T11:14:49;35.83;;;14.53;;
24857;SDS011;12935;50.782;6.074;2023-09-19T11:25:55;27.17;;;13.67;;
24857;SDS011;12935;50.782;6.074;2023-09-19T11:30:42;21.67;;;13.43;;
24857;SDS011;12935;50.782;6.074;2023-09-19T11:33:17;19.10;;;12.73;;
24857;SDS011;12935;50.782;6.074;2023-09-19T11:36:13;29.63;;;13.50;;
24857;SDS011;12935;50.782;6.074;2023-09-19T11:46:30;30.73;;;14.97;;
24857;SDS011;12935;50.782;6.074;2023-09-19T11:49:04;24.73;;;15.40;;
24857;SDS011;12935;50.782;6.074;2023-09-19T11:51:39;27.77;;;15.77;;
24857;SDS011;12935;50.782;6.074;2023-09-19T11:54:10;16.07;;;14.50;;
24857;SDS011;12935;50.782;6.074;2023-09-19T11:56:42;27.57;;;15.33;;
24857;SDS011;12935;50.782;6.074;2023-09-19T11:59:09;27.27;;;15.27;;
24857;SDS011;12935;50.782;6.074;2023-09-19T12:01:35;22.87;;;15.93;;
24857;SDS011;12935;50.782;6.074;2023-09-19T12:04:05;20.50;;;15.63;;
24857;SDS011;12935;50.782;6.074;2023-09-19T12:06:33;27.67;;;16.73;;
24857;SDS011;12935;50.782;6.074;2023-09-19T12:09:00;25.40;;;15.80;;
24857;SDS011;12935;50.782;6.074;2023-09-19T12:11:30;26.07;;;18.77;;
24857;SDS011;12935;50.782;6.074;2023-09-19T12:14:01;20.57;;;15.83;;
24857;SDS011;12935;50.782;6.074;2023-09-19T12:16:29;17.30;;;15.60;;
24857;SDS011;12935;50.782;6.074;2023-09-19T12:18:56;21.47;;;16.33;;
24857;SDS011;12935;50.782;6.074;2023-09-19T12:21:29;17.33;;;15.63;;
24857;SDS011;12935;50.782;6.074;2023-09-19T12:26:29;22.33;;;16.30;;
24857;SDS011;12935;50.782;6.074;2023-09-19T12:28:59;18.60;;;16.20;;
24857;SDS011;12935;50.782;6.074;2023-09-19T12:31:27;20.10;;;16.50;;
24857;SDS011;12935;50.782;6.074;2023-09-19T12:33:55;27.40;;;16.27;;
24857;SDS011;12935;50.782;6.074;2023-09-19T12:36:22;27.03;;;17.40;;
24857;SDS011;12935;50.782;6.074;2023-09-19T12:38:54;21.10;;;17.07;;
24857;SDS011;12935;50.782;6.074;2023-09-19T12:41:20;17.83;;;16.03;;
24857;SDS011;12935;50.782;6.074;2023-09-19T12:43:47;43.93;;;20.30;;
24857;SDS011;12935;50.782;6.074;2023-09-19T12:46:13;25.60;;;17.73;;
24857;SDS011;12935;50.782;6.074;2023-09-19T12:48:40;23.07;;;17.87;;
24857;SDS011;12935;50.782;6.074;2023-09-19T12:51:09;20.70;;;16.77;;
24857;SDS011;12935;50.782;6.074;2023-09-19T12:53:41;35.80;;;18.43;;
24857;SDS011;12935;50.782;6.074;2023-09-19T12:56:12;24.83;;;16.80;;
24857;SDS011;12935;50.782;6.074;2023-09-19T13:01:19;24.60;;;18.00;;
24857;SDS011;12935;50.782;6.074;2023-09-19T13:03:45;40.67;;;19.47;;
24857;SDS011;12935;50.782;6.074;2023-09-19T13:06:11;18.70;;;16.80;;
24857;SDS011;12935;50.782;6.074;2023-09-19T13:08:40;30.43;;;18.17;;
24857;SDS011;12935;50.782;6.074;2023-09-19T13:11:12;22.27;;;18.13;;
24857;SDS011;12935;50.782;6.074;2023-09-19T13:16:06;29.03;;;17.10;;
24857;SDS011;12935;50.782;6.074;2023-09-19T13:18:43;26.37;;;17.30;;
24857;SDS011;12935;50.782;6.074;2023-09-19T13:21:11;25.40;;;16.20;;
24857;SDS011;12935;50.782;6.074;2023-09-19T13:23:41;19.83;;;16.87;;
24857;SDS011;12935;50.782;6.074;2023-09-19T13:26:11;23.13;;;15.50;;
24857;SDS011;12935;50.782;6.074;2023-09-19T13:28:40;32.53;;;17.20;;
24857;SDS011;12935;50.782;6.074;2023-09-19T13:31:05;18.70;;;16.50;;
24857;SDS011;12935;50.782;6.074;2023-09-19T13:33:31;20.70;;;15.93;;
24857;SDS011;12935;50.782;6.074;2023-09-19T13:35:56;27.37;;;16.00;;
24857;SDS011;12935;50.782;6.074;2023-09-19T13:38:22;22.87;;;16.33;;
24857;SDS011;12935;50.782;6.074;2023-09-19T13:40:47;26.00;;;17.03;;
24857;SDS011;12935;50.782;6.074;2023-09-19T13:43:13;28.13;;;16.33;;
24857;SDS011;12935;50.782;6.074;2023-09-19T13:45:39;20.77;;;16.10;;
24857;SDS011;12935;50.782;6.074;2023-09-19T13:48:07;30.07;;;16.53;;
24857;SDS011;12935;50.782;6.074;2023-09-19T13:50:34;26.60;;;16.27;;
24857;SDS011;12935;50.782;6.074;2023-09-19T13:52:59;26.27;;;15.77;;
24857;SDS011;12935;50.782;6.074;2023-09-19T13:55:28;24.33;;;15.67;;
24857;SDS011;12935;50.782;6.074;2023-09-19T13:57:53;28.10;;;15.37;;
24857;SDS011;12935;50.782;6.074;2023-09-19T14:00:20;26.20;;;15.13;;
24857;SDS011;12935;50.782;6.074;2023-09-19T14:02:47;17.60;;;15.97;;
24857;SDS011;12935;50.782;6.074;2023-09-19T14:05:14;28.57;;;16.70;;
24857;SDS011;12935;50.782;6.074;2023-09-19T14:07:42;26.93;;;17.70;;
24857;SDS011;12935;50.782;6.074;2023-09-19T14:10:07;28.90;;;18.73;;
24857;SDS011;12935;50.782;6.074;2023-09-19T14:12:35;26.47;;;16.07;;
24857;SDS011;12935;50.782;6.074;2023-09-19T14:15:02;28.97;;;19.03;;
24857;SDS011;12935;50.782;6.074;2023-09-19T14:17:28;23.83;;;18.50;;
24857;SDS011;12935;50.782;6.074;2023-09-19T14:19:53;27.57;;;18.60;;
24857;SDS011;12935;50.782;6.074;2023-09-19T14:22:18;20.87;;;17.30;;
24857;SDS011;12935;50.782;6.074;2023-09-19T14:24:44;23.47;;;16.83;;
24857;SDS011;12935;50.782;6.074;2023-09-19T14:27:09;22.00;;;17.30;;
24857;SDS011;12935;50.782;6.074;2023-09-19T14:29:36;26.60;;;17.93;;
24857;SDS011;12935;50.782;6.074;2023-09-19T14:32:01;29.20;;;17.57;;
24857;SDS011;12935;50.782;6.074;2023-09-19T14:34:27;24.80;;;17.60;;
24857;SDS011;12935;50.782;6.074;2023-09-19T14:36:52;29.43;;;17.43;;
24857;SDS011;12935;50.782;6.074;2023-09-19T14:39:19;37.10;;;18.07;;
24857;SDS011;12935;50.782;6.074;2023-09-19T14:41:45;17.07;;;15.33;;
24857;SDS011;12935;50.782;6.074;2023-09-19T14:44:14;21.57;;;15.07;;
24857;SDS011;12935;50.782;6.074;2023-09-19T14:46:43;25.27;;;16.13;;
24857;SDS011;12935;50.782;6.074;2023-09-19T14:49:09;27.80;;;16.67;;
24857;SDS011;12935;50.782;6.074;2023-09-19T14:51:35;29.40;;;16.60;;
24857;SDS011;12935;50.782;6.074;2023-09-19T14:54:00;41.40;;;17.27;;
24857;SDS011;12935;50.782;6.074;2023-09-19T14:56:27;25.77;;;15.80;;
24857;SDS011;12935;50.782;6.074;2023-09-19T14:58:54;18.30;;;15.50;;
24857;SDS011;12935;50.782;6.074;2023-09-19T15:01:20;23.57;;;14.03;;
24857;SDS011;12935;50.782;6.074;2023-09-19T15:03:47;21.07;;;14.40;;
24857;SDS011;12935;50.782;6.074;2023-09-19T15:06:14;16.27;;;14.50;;
24857;SDS011;12935;50.782;6.074;2023-09-19T15:08:39;21.90;;;14.37;;
24857;SDS011;12935;50.782;6.074;2023-09-19T15:11:10;24.87;;;15.17;;
24857;SDS011;12935;50.782;6.074;2023-09-19T15:13:41;30.73;;;15.70;;
24857;SDS011;12935;50.782;6.074;2023-09-19T15:16:07;15.93;;;13.20;;
24857;SDS011;12935;50.782;6.074;2023-09-19T15:18:34;19.57;;;14.20;;
24857;SDS011;12935;50.782;6.074;2023-09-19T15:21:06;31.27;;;15.30;;
24857;SDS011;12935;50.782;6.074;2023-09-19T15:23:32;26.27;;;14.00;;
24857;SDS011;12935;50.782;6.074;2023-09-19T15:26:05;25.63;;;13.60;;
24857;SDS011;12935;50.782;6.074;2023-09-19T15:28:32;22.50;;;13.90;;
24857;SDS011;12935;50.782;6.074;2023-09-19T15:31:08;30.03;;;15.37;;
24857;SDS011;12935;50.782;6.074;2023-09-19T15:33:35;22.67;;;13.57;;
24857;SDS011;12935;50.782;6.074;2023-09-19T15:36:01;36.43;;;14.37;;
24857;SDS011;12935;50.782;6.074;2023-09-19T15:38:31;18.83;;;13.33;;
24857;SDS011;12935;50.782;6.074;2023-09-19T15:41:21;24.33;;;15.10;;
24857;SDS011;12935;50.782;6.074;2023-09-19T15:43:48;26.57;;;14.43;;
24857;SDS011;12935;50.782;6.074;2023-09-19T15:46:13;24.07;;;12.80;;
24857;SDS011;12935;50.782;6.074;2023-09-19T15:48:40;53.20;;;14.67;;